Amsterdam — PBAD — position and weather

sailwx.info

Track history (hours):
 
Tides and Currents Weather Stations Pressure Air Temp Water Temp Dewpoint Dewpoint Depression Visibility Wind Speed Wind Dir Waves Ship Positions

Amsterdam

Operator: Holland America Line

Last reported at 2014-Oct-20 02:14 UTC. Time now 2014-Oct-20 04:28 UTC.
Position N 31°15' E 121°30'.

Type: Ship. MMSI: 244370000.

Date/timePositionNaut miles runAvg speedWind from/ knotsBaromVisibWave heightAir tempDewpointWater temp
2014-Oct-20 02:14N 31°15' E 121°30'0 0.0
2014-Oct-20 00:32N 31°15' E 121°30'0 0.0
2014-Oct-19 23:26N 31°15' E 121°30'0 0.0
2014-Oct-19 22:26N 31°15' E 121°30'0 0.0
2014-Oct-19 21:14N 31°15' E 121°30'0 0.0
2014-Oct-19 20:26N 31°15' E 121°30'0 0.0
2014-Oct-19 19:26N 31°15' E 121°30'0 0.0
2014-Oct-19 18:26N 31°15' E 121°30'0 0.0
2014-Oct-19 17:32N 31°15' E 121°30'0 0.0
2014-Oct-19 16:20N 31°15' E 121°30'0 0.0
2014-Oct-19 15:32N 31°15' E 121°30'0 0.0
2014-Oct-19 14:33N 31°15' E 121°30'0 0.0
2014-Oct-19 13:32N 31°15' E 121°30'0 0.0
2014-Oct-19 12:33N 31°15' E 121°30'0 0.0
2014-Oct-19 10:33N 31°15' E 121°30'0 0.0
2014-Oct-19 09:21N 31°15' E 121°30'0 0.0
2014-Oct-19 08:32N 31°15' E 121°30'0 0.0
2014-Oct-19 07:20N 31°15' E 121°30'0 0.0
2014-Oct-19 06:26N 31°15' E 121°30'0 0.0
2014-Oct-19 05:27N 31°15' E 121°30'0 0.0
2014-Oct-19 04:15N 31°15' E 121°30'0 0.0
2014-Oct-19 03:33N 31°15' E 121°30'0 0.0
2014-Oct-19 02:32N 31°15' E 121°30'0 0.0
2014-Oct-19 01:21N 31°15' E 121°30'0 0.0
2014-Oct-19 00:08N 31°15' E 121°30'0 0.0
2014-Oct-18 23:33N 31°15' E 121°30'0 0.0
2014-Oct-18 22:32N 31°15' E 121°30'0 0.0
2014-Oct-18 21:33N 31°15' E 121°30'0 0.0
2014-Oct-18 20:32N 31°15' E 121°30'0 0.0
2014-Oct-18 19:20N 31°15' E 121°30'0 0.0
2014-Oct-18 18:26N 31°15' E 121°30'0 0.0
2014-Oct-18 17:32N 31°15' E 121°30'0 0.0
2014-Oct-18 16:20N 31°15' E 121°30'0 0.0
2014-Oct-18 15:33N 31°15' E 121°30'0 0.0
2014-Oct-18 14:26N 31°15' E 121°30'0 0.0
2014-Oct-18 13:27N 31°15' E 121°30'0 0.0
2014-Oct-18 12:27N 31°15' E 121°30'0 0.0
2014-Oct-18 11:26N 31°15' E 121°30'0 0.0
2014-Oct-18 10:32N 31°15' E 121°30'0 0.0
2014-Oct-18 09:32N 31°15' E 121°30'0 0.0
2014-Oct-18 08:33N 31°15' E 121°30'0 0.0
2014-Oct-18 07:27N 31°15' E 121°30'0 0.0
2014-Oct-18 06:32N 31°15' E 121°30'0 0.0
2014-Oct-18 05:26N 31°15' E 121°30'0 0.0
2014-Oct-18 04:33N 31°15' E 121°30'0 0.0
2014-Oct-18 02:33N 31°15' E 121°30'0 0.0
2014-Oct-18 01:33N 31°15' E 121°30'0 0.0
2014-Oct-18 00:33N 31°15' E 121°30'0 0.0
2014-Oct-17 23:32N 31°15' E 121°30'0 0.0
2014-Oct-17 22:21N 31°15' E 121°30'0 0.0
2014-Oct-17 21:26N 31°15' E 121°30'0 0.0
2014-Oct-17 20:33N 31°15' E 121°30'0 0.0
2014-Oct-17 19:33N 31°15' E 121°30'0 0.0
2014-Oct-17 18:26N 31°15' E 121°30'0 0.0
2014-Oct-17 17:33N 31°15' E 121°30'0 0.0
2014-Oct-17 15:08N 31°15' E 121°30'0 0.0
2014-Oct-17 14:32N 31°15' E 121°30'1 1.1
2014-Oct-17 13:33N 31°15' E 121°31'6 5.8
2014-Oct-17 12:33N 31°21' E 121°32'3 3.3
2014-Oct-17 11:33N 31°24' E 121°33'7 6.8
2014-Oct-17 10:33N 31°21' E 121°41'1110.5
2014-Oct-17 09:30N 31°16' E 121°52'4 8.5
2014-Oct-17 09:00N 31°12' E 121°54'818.4 130 / 71021.0 5.4 21.014.722.0
2014-Oct-17 08:33N 31°14' E 122°03'37 8.6
2014-Oct-17 04:16N 31°41' E 122°33'9817.0
2014-Oct-16 22:29N 33°18' E 122°44'1617.1
2014-Oct-16 21:33N 33°34' E 122°39'1717.3
2014-Oct-16 20:33N 33°51' E 122°37'5416.8
2014-Oct-16 17:20N 34°42' E 122°13'3717.1
2014-Oct-16 15:10N 35°07' E 121°40'1117.3
2014-Oct-16 14:33N 35°14' E 121°31'4017.2
2014-Oct-16 12:14N 35°42' E 120°55'623.8
2014-Oct-16 12:00N 35°42' E 120°48'1312.9 230 / 151023.0 5.4 19.014.221.0
2014-Oct-16 11:00N 35°54' E 120°42'83 4.0 210 / 151023.0 5.4 18.0 9.221.0
2014-Oct-15 14:33N 36°36' E 122°10'1212.3
2014-Oct-15 13:33N 36°42' E 122°23'1212.2
2014-Oct-15 12:33N 36°48' E 122°37'1211.8
2014-Oct-15 11:33N 36°58' E 122°45'1212.0
2014-Oct-15 10:33N 37°10' E 122°47'1212.2
2014-Oct-15 09:33N 37°22' E 122°47'4 7.7
2014-Oct-15 09:00N 37°24' E 122°42'919.6 220 / 231013.0 5.4 1.019.010.421.0
2014-Oct-15 08:33N 37°33' E 122°41'1212.2
2014-Oct-15 07:33N 37°40' E 122°29'1212.2
2014-Oct-15 06:33N 37°47' E 122°16'1212.1
2014-Oct-15 05:33N 37°54' E 122°04'1212.1
2014-Oct-15 04:33N 38°02' E 121°51'1212.1
2014-Oct-15 03:33N 38°09' E 121°39'1212.2
2014-Oct-15 02:33N 38°16' E 121°26'1212.2
2014-Oct-15 01:33N 38°23' E 121°14'1312.2
2014-Oct-15 00:32N 38°30' E 121°01'3413.3
2014-Oct-14 22:00N 38°36' E 120°18'10411.8 230 / 231014.0 2.2 16.012.718.0
2014-Oct-14 13:11N 38°55' E 118°06'913.7
2014-Oct-14 12:33N 38°57' E 117°56'6 5.2
2014-Oct-14 11:28N 38°59' E 117°49'0 0.0
2014-Oct-14 10:28N 38°59' E 117°49'5 9.5
2014-Oct-14 10:00N 38°54' E 117°48'5 7.4 230 / 121016.0 5.4 19.0 8.320.0
2014-Oct-14 09:22N 38°59' E 117°49'0 0.0
2014-Oct-14 08:22N 38°59' E 117°49'0 0.0
2014-Oct-14 07:28N 38°59' E 117°49'0 0.0
2014-Oct-14 06:28N 38°59' E 117°49'0 0.0
2014-Oct-14 05:28N 38°59' E 117°49'0 0.0
2014-Oct-14 04:22N 38°59' E 117°49'0 0.0
2014-Oct-14 03:17N 38°59' E 117°49'0 0.0
2014-Oct-14 02:28N 38°59' E 117°49'0 0.0
2014-Oct-14 01:28N 38°59' E 117°49'0 0.0
2014-Oct-14 00:28N 38°59' E 117°49'0 0.0
2014-Oct-13 23:28N 38°59' E 117°49'0 0.0
2014-Oct-13 22:28N 38°59' E 117°49'0 0.0
2014-Oct-13 21:28N 38°59' E 117°49'0 0.0
2014-Oct-13 20:28N 38°59' E 117°49'0 0.0
2014-Oct-13 19:28N 38°59' E 117°49'0 0.0
2014-Oct-13 18:28N 38°59' E 117°49'0 0.0
2014-Oct-13 17:28N 38°59' E 117°49'0 0.0
2014-Oct-13 16:16N 38°59' E 117°49'0 0.0
2014-Oct-13 15:22N 38°59' E 117°49'0 0.0
2014-Oct-13 14:16N 38°59' E 117°49'0 0.0
2014-Oct-13 13:28N 38°59' E 117°49'0 0.0
2014-Oct-13 12:10N 38°59' E 117°49'0 0.0
2014-Oct-13 11:22N 38°59' E 117°49'512.0
2014-Oct-13 11:00N 38°54' E 117°48'5 7.4 350 / 51024.0 5.4 15.0 5.420.0
2014-Oct-13 10:22N 38°59' E 117°49'0 0.0
2014-Oct-13 09:22N 38°59' E 117°49'512.0
2014-Oct-13 09:00N 38°54' E 117°48'5 8.8 110 / 131023.0 5.4 17.0 5.620.0
2014-Oct-13 08:28N 38°59' E 117°49'0 0.0
2014-Oct-13 06:28N 38°59' E 117°49'0 0.0
2014-Oct-13 05:28N 38°59' E 117°49'0 0.0
2014-Oct-13 04:28N 38°59' E 117°49'0 0.0
2014-Oct-13 02:28N 38°59' E 117°49'0 0.0
2014-Oct-13 01:22N 38°59' E 117°49'0 0.0
2014-Oct-13 00:28N 38°59' E 117°49'0 0.0
2014-Oct-12 23:28N 38°59' E 117°49'0 0.1
2014-Oct-12 22:33N 38°59' E 117°49'1111.2
2014-Oct-12 21:33N 38°56' E 118°03'15411.9
2014-Oct-12 08:33N 38°28' E 121°17'1312.3
2014-Oct-12 07:32N 38°23' E 121°32'9712.2
2014-Oct-11 23:32N 37°43' E 123°25'1212.2
2014-Oct-11 22:32N 37°38' E 123°39'3712.2
2014-Oct-11 19:30N 37°23' E 124°21'2712.9
2014-Oct-11 17:24N 37°12' E 124°53'1112.3
2014-Oct-11 16:33N 37°08' E 125°05'1712.2
2014-Oct-11 15:08N 36°60' E 125°24'  
Track history (hours):
 
Tides and Currents Weather Stations Pressure Air Temp Water Temp Dewpoint Dewpoint Depression Visibility Wind Speed Wind Dir Waves Ship Positions

Amsterdam

Operator: Holland America Line

Last reported at 2014-Oct-20 02:14 UTC. Time now 2014-Oct-20 04:28 UTC.
Position N 31°15' E 121°30'.

Type: Ship. MMSI: 244370000.

Date/timePositionNaut miles runAvg speedWind from/ knotsBaromVisibWave heightAir tempDewpointWater temp
2014-Oct-20 02:14N 31°15' E 121°30'0 0.0
2014-Oct-20 00:32N 31°15' E 121°30'0 0.0
2014-Oct-19 23:26N 31°15' E 121°30'0 0.0
2014-Oct-19 22:26N 31°15' E 121°30'0 0.0
2014-Oct-19 21:14N 31°15' E 121°30'0 0.0
2014-Oct-19 20:26N 31°15' E 121°30'0 0.0
2014-Oct-19 19:26N 31°15' E 121°30'0 0.0
2014-Oct-19 18:26N 31°15' E 121°30'0 0.0
2014-Oct-19 17:32N 31°15' E 121°30'0 0.0
2014-Oct-19 16:20N 31°15' E 121°30'0 0.0
2014-Oct-19 15:32N 31°15' E 121°30'0 0.0
2014-Oct-19 14:33N 31°15' E 121°30'0 0.0
2014-Oct-19 13:32N 31°15' E 121°30'0 0.0
2014-Oct-19 12:33N 31°15' E 121°30'0 0.0
2014-Oct-19 10:33N 31°15' E 121°30'0 0.0
2014-Oct-19 09:21N 31°15' E 121°30'0 0.0
2014-Oct-19 08:32N 31°15' E 121°30'0 0.0
2014-Oct-19 07:20N 31°15' E 121°30'0 0.0
2014-Oct-19 06:26N 31°15' E 121°30'0 0.0
2014-Oct-19 05:27N 31°15' E 121°30'0 0.0
2014-Oct-19 04:15N 31°15' E 121°30'0 0.0
2014-Oct-19 03:33N 31°15' E 121°30'0 0.0
2014-Oct-19 02:32N 31°15' E 121°30'0 0.0
2014-Oct-19 01:21N 31°15' E 121°30'0 0.0
2014-Oct-19 00:08N 31°15' E 121°30'0 0.0
2014-Oct-18 23:33N 31°15' E 121°30'0 0.0
2014-Oct-18 22:32N 31°15' E 121°30'0 0.0
2014-Oct-18 21:33N 31°15' E 121°30'0 0.0
2014-Oct-18 20:32N 31°15' E 121°30'0 0.0
2014-Oct-18 19:20N 31°15' E 121°30'0 0.0
2014-Oct-18 18:26N 31°15' E 121°30'0 0.0
2014-Oct-18 17:32N 31°15' E 121°30'0 0.0
2014-Oct-18 16:20N 31°15' E 121°30'0 0.0
2014-Oct-18 15:33N 31°15' E 121°30'0 0.0
2014-Oct-18 14:26N 31°15' E 121°30'0 0.0
2014-Oct-18 13:27N 31°15' E 121°30'0 0.0
2014-Oct-18 12:27N 31°15' E 121°30'0 0.0
2014-Oct-18 11:26N 31°15' E 121°30'0 0.0
2014-Oct-18 10:32N 31°15' E 121°30'0 0.0
2014-Oct-18 09:32N 31°15' E 121°30'0 0.0
2014-Oct-18 08:33N 31°15' E 121°30'0 0.0
2014-Oct-18 07:27N 31°15' E 121°30'0 0.0
2014-Oct-18 06:32N 31°15' E 121°30'0 0.0
2014-Oct-18 05:26N 31°15' E 121°30'0 0.0
2014-Oct-18 04:33N 31°15' E 121°30'0 0.0
2014-Oct-18 02:33N 31°15' E 121°30'0 0.0
2014-Oct-18 01:33N 31°15' E 121°30'0 0.0
2014-Oct-18 00:33N 31°15' E 121°30'0 0.0
2014-Oct-17 23:32N 31°15' E 121°30'0 0.0
2014-Oct-17 22:21N 31°15' E 121°30'0 0.0
2014-Oct-17 21:26N 31°15' E 121°30'0 0.0
2014-Oct-17 20:33N 31°15' E 121°30'0 0.0
2014-Oct-17 19:33N 31°15' E 121°30'0 0.0
2014-Oct-17 18:26N 31°15' E 121°30'0 0.0
2014-Oct-17 17:33N 31°15' E 121°30'0 0.0
2014-Oct-17 15:08N 31°15' E 121°30'0 0.0
2014-Oct-17 14:32N 31°15' E 121°30'1 1.1
2014-Oct-17 13:33N 31°15' E 121°31'6 5.8
2014-Oct-17 12:33N 31°21' E 121°32'3 3.3
2014-Oct-17 11:33N 31°24' E 121°33'7 6.8
2014-Oct-17 10:33N 31°21' E 121°41'1110.5
2014-Oct-17 09:30N 31°16' E 121°52'4 8.5
2014-Oct-17 09:00N 31°12' E 121°54'818.4 130 / 71021.0 5.4 21.014.722.0
2014-Oct-17 08:33N 31°14' E 122°03'37 8.6
2014-Oct-17 04:16N 31°41' E 122°33'9817.0
2014-Oct-16 22:29N 33°18' E 122°44'1617.1
2014-Oct-16 21:33N 33°34' E 122°39'1717.3
2014-Oct-16 20:33N 33°51' E 122°37'5416.8
2014-Oct-16 17:20N 34°42' E 122°13'3717.1
2014-Oct-16 15:10N 35°07' E 121°40'1117.3
2014-Oct-16 14:33N 35°14' E 121°31'4017.2
2014-Oct-16 12:14N 35°42' E 120°55'623.8
2014-Oct-16 12:00N 35°42' E 120°48'1312.9 230 / 151023.0 5.4 19.014.221.0
2014-Oct-16 11:00N 35°54' E 120°42'83 4.0 210 / 151023.0 5.4 18.0 9.221.0
2014-Oct-15 14:33N 36°36' E 122°10'1212.3
2014-Oct-15 13:33N 36°42' E 122°23'1212.2
2014-Oct-15 12:33N 36°48' E 122°37'1211.8
2014-Oct-15 11:33N 36°58' E 122°45'1212.0
2014-Oct-15 10:33N 37°10' E 122°47'1212.2
2014-Oct-15 09:33N 37°22' E 122°47'4 7.7
2014-Oct-15 09:00N 37°24' E 122°42'919.6 220 / 231013.0 5.4 1.019.010.421.0
2014-Oct-15 08:33N 37°33' E 122°41'1212.2
2014-Oct-15 07:33N 37°40' E 122°29'1212.2
2014-Oct-15 06:33N 37°47' E 122°16'1212.1
2014-Oct-15 05:33N 37°54' E 122°04'1212.1
2014-Oct-15 04:33N 38°02' E 121°51'1212.1
2014-Oct-15 03:33N 38°09' E 121°39'1212.2
2014-Oct-15 02:33N 38°16' E 121°26'1212.2
2014-Oct-15 01:33N 38°23' E 121°14'1312.2
2014-Oct-15 00:32N 38°30' E 121°01'3413.3
2014-Oct-14 22:00N 38°36' E 120°18'10411.8 230 / 231014.0 2.2 16.012.718.0
2014-Oct-14 13:11N 38°55' E 118°06'913.7
2014-Oct-14 12:33N 38°57' E 117°56'6 5.2
2014-Oct-14 11:28N 38°59' E 117°49'0 0.0
2014-Oct-14 10:28N 38°59' E 117°49'5 9.5
2014-Oct-14 10:00N 38°54' E 117°48'5 7.4 230 / 121016.0 5.4 19.0 8.320.0
2014-Oct-14 09:22N 38°59' E 117°49'0 0.0
2014-Oct-14 08:22N 38°59' E 117°49'0 0.0
2014-Oct-14 07:28N 38°59' E 117°49'0 0.0
2014-Oct-14 06:28N 38°59' E 117°49'0 0.0
2014-Oct-14 05:28N 38°59' E 117°49'0 0.0
2014-Oct-14 04:22N 38°59' E 117°49'0 0.0
2014-Oct-14 03:17N 38°59' E 117°49'0 0.0
2014-Oct-14 02:28N 38°59' E 117°49'0 0.0
2014-Oct-14 01:28N 38°59' E 117°49'0 0.0
2014-Oct-14 00:28N 38°59' E 117°49'0 0.0
2014-Oct-13 23:28N 38°59' E 117°49'0 0.0
2014-Oct-13 22:28N 38°59' E 117°49'0 0.0
2014-Oct-13 21:28N 38°59' E 117°49'0 0.0
2014-Oct-13 20:28N 38°59' E 117°49'0 0.0
2014-Oct-13 19:28N 38°59' E 117°49'0 0.0
2014-Oct-13 18:28N 38°59' E 117°49'0 0.0
2014-Oct-13 17:28N 38°59' E 117°49'0 0.0
2014-Oct-13 16:16N 38°59' E 117°49'0 0.0
2014-Oct-13 15:22N 38°59' E 117°49'0 0.0
2014-Oct-13 14:16N 38°59' E 117°49'0 0.0
2014-Oct-13 13:28N 38°59' E 117°49'0 0.0
2014-Oct-13 12:10N 38°59' E 117°49'0 0.0
2014-Oct-13 11:22N 38°59' E 117°49'512.0
2014-Oct-13 11:00N 38°54' E 117°48'5 7.4 350 / 51024.0 5.4 15.0 5.420.0
2014-Oct-13 10:22N 38°59' E 117°49'0 0.0
2014-Oct-13 09:22N 38°59' E 117°49'512.0
2014-Oct-13 09:00N 38°54' E 117°48'5 8.8 110 / 131023.0 5.4 17.0 5.620.0
2014-Oct-13 08:28N 38°59' E 117°49'0 0.0
2014-Oct-13 06:28N 38°59' E 117°49'0 0.0
2014-Oct-13 05:28N 38°59' E 117°49'0 0.0
2014-Oct-13 04:28N 38°59' E 117°49'0 0.0
2014-Oct-13 02:28N 38°59' E 117°49'0 0.0
2014-Oct-13 01:22N 38°59' E 117°49'0 0.0
2014-Oct-13 00:28N 38°59' E 117°49'0 0.0
2014-Oct-12 23:28N 38°59' E 117°49'0 0.1
2014-Oct-12 22:33N 38°59' E 117°49'1111.2
2014-Oct-12 21:33N 38°56' E 118°03'15411.9
2014-Oct-12 08:33N 38°28' E 121°17'1312.3
2014-Oct-12 07:32N 38°23' E 121°32'9712.2
2014-Oct-11 23:32N 37°43' E 123°25'1212.2
2014-Oct-11 22:32N 37°38' E 123°39'3712.2
2014-Oct-11 19:30N 37°23' E 124°21'2712.9
2014-Oct-11 17:24N 37°12' E 124°53'1112.3
2014-Oct-11 16:33N 37°08' E 125°05'1712.2
2014-Oct-11 15:08N 36°60' E 125°24'  

Dump ship's entire track history